Time;durP1;ratioP1;P1;durP2;ratioP2;P2;SDS_P1;SDS_P2;PMS_P1;PMS_P2;Temp;Humidity;BMP_temperature;BMP_pressure;BME280_temperature;BME280_humidity;BME280_pressure;Samples;Min_cycle;Max_cycle;Signal;HPM_P1;HPM_P2
2023/09/28 00:00:43;;;;;;;14.50;8.93;;;;;;;19.77;55.14;101067.66;5088633;28;20207;-61
2023/09/28 00:03:11;;;;;;;12.52;8.35;;;;;;;19.76;55.26;101066.78;5081205;28;20247;-62
2023/09/28 00:05:38;;;;;;;12.80;9.30;;;;;;;19.77;55.12;101063.31;5090538;28;20305;-63
2023/09/28 00:08:07;;;;;;;15.65;9.07;;;;;;;19.77;55.03;101065.03;5086718;28;20205;-63
2023/09/28 00:10:35;;;;;;;13.52;9.15;;;;;;;19.76;55.05;101064.19;5089780;28;20720;-62
2023/09/28 00:13:03;;;;;;;13.13;8.50;;;;;;;19.75;55.11;101070.31;5090194;28;20212;-63
2023/09/28 00:15:31;;;;;;;12.05;8.30;;;;;;;19.71;55.45;101063.50;5090074;28;20205;-62
2023/09/28 00:18:00;;;;;;;14.38;8.68;;;;;;;19.71;55.38;101060.03;5085976;28;20249;-62
2023/09/28 00:20:28;;;;;;;14.68;9.10;;;;;;;19.70;55.52;101058.28;5088157;28;20200;-63
2023/09/28 00:22:56;;;;;;;15.05;9.18;;;;;;;19.66;55.80;101054.97;5089768;28;20205;-61
2023/09/28 00:25:24;;;;;;;11.15;8.70;;;;;;;19.63;55.96;101055.06;5089409;28;20671;-66
2023/09/28 00:27:55;;;;;;;15.13;9.45;;;;;;;19.62;55.89;101060.28;5091836;28;20272;-63
2023/09/28 00:30:26;;;;;;;13.13;8.95;;;;;;;19.62;56.03;101047.22;5088549;28;20201;-62
2023/09/28 00:32:57;;;;;;;13.60;9.32;;;;;;;19.60;55.93;101055.13;5084034;28;20222;-62
2023/09/28 00:35:26;;;;;;;16.63;10.05;;;;;;;19.58;56.16;101056.06;5088205;28;20232;-62
2023/09/28 00:37:54;;;;;;;13.02;9.23;;;;;;;19.56;56.47;101063.97;5089587;28;20240;-62
2023/09/28 00:40:28;;;;;;;12.65;9.65;;;;;;;19.51;56.62;101060.63;5088492;28;20269;-63
2023/09/28 00:42:56;;;;;;;16.60;11.25;;;;;;;19.50;56.56;101059.78;5088303;28;20232;-62
2023/09/28 00:45:25;;;;;;;14.73;10.02;;;;;;;19.49;56.65;101055.47;5077816;28;20228;-63
2023/09/28 00:47:59;;;;;;;17.60;11.05;;;;;;;19.48;56.98;101051.16;5090861;28;20541;-63
2023/09/28 00:50:31;;;;;;;14.90;10.13;;;;;;;19.47;56.79;101053.78;5084448;28;21172;-63
2023/09/28 00:53:02;;;;;;;16.73;11.50;;;;;;;19.41;57.05;101051.41;5088422;28;20235;-62
2023/09/28 00:55:30;;;;;;;16.25;11.90;;;;;;;19.37;57.02;101052.38;5088789;28;20609;-63
2023/09/28 00:58:00;;;;;;;15.93;10.43;;;;;;;19.33;56.91;101056.88;5084449;28;20207;-62
2023/09/28 01:00:29;;;;;;;16.25;11.57;;;;;;;19.31;57.31;101054.28;5084656;28;20227;-62
2023/09/28 01:03:02;;;;;;;18.40;12.35;;;;;;;19.29;57.45;101056.13;5080423;28;20284;-63
2023/09/28 01:05:31;;;;;;;20.00;12.52;;;;;;;19.26;57.35;101052.75;5087888;28;20977;-61
2023/09/28 01:08:08;;;;;;;19.02;12.13;;;;;;;19.23;57.67;101056.28;5086262;28;20289;-62
2023/09/28 01:10:36;;;;;;;19.70;11.38;;;;;;;19.24;57.58;101052.78;5085979;28;20253;-62
2023/09/28 01:13:08;;;;;;;21.33;13.27;;;;;;;19.23;57.76;101045.84;5088233;28;20635;-62
2023/09/28 01:15:36;;;;;;;17.98;12.15;;;;;;;19.23;57.74;101045.84;5089242;28;20584;-62
2023/09/28 01:18:09;;;;;;;14.43;11.65;;;;;;;19.22;57.75;101038.03;5087982;28;20216;-63
2023/09/28 01:20:37;;;;;;;18.77;12.18;;;;;;;19.21;57.79;101052.00;5086009;28;20667;-63
2023/09/28 01:23:06;;;;;;;18.83;12.25;;;;;;;19.17;57.62;101048.63;5077981;28;20547;-62
2023/09/28 01:25:34;;;;;;;20.42;12.75;;;;;;;19.11;57.94;101048.84;5087105;28;20288;-62
2023/09/28 01:28:02;;;;;;;21.52;13.23;;;;;;;19.07;58.15;101044.59;5086052;28;20229;-61
2023/09/28 01:30:30;;;;;;;19.42;12.50;;;;;;;19.00;58.28;101043.94;5085571;28;20212;-63
2023/09/28 01:32:58;;;;;;;18.75;13.52;;;;;;;18.93;58.62;101041.56;5089963;28;20694;-62
2023/09/28 01:35:26;;;;;;;20.40;13.13;;;;;;;18.88;58.61;101039.06;5083178;28;20235;-62
2023/09/28 01:38:02;;;;;;;18.85;13.05;;;;;;;18.83;58.86;101035.75;5082125;28;20236;-63
2023/09/28 01:40:31;;;;;;;16.88;12.68;;;;;;;18.77;58.83;101031.56;5086586;28;20204;-62
2023/09/28 01:42:59;;;;;;;19.30;12.27;;;;;;;18.72;58.88;101025.63;5077448;28;20192;-62
2023/09/28 01:45:26;;;;;;;18.65;12.15;;;;;;;18.70;58.98;101027.38;5083232;28;20212;-62
2023/09/28 01:47:54;;;;;;;16.65;11.88;;;;;;;18.68;58.71;101021.38;5090554;28;20628;-62
2023/09/28 01:50:22;;;;;;;22.95;12.52;;;;;;;18.69;58.69;101023.06;5087902;28;20211;-63
2023/09/28 01:52:50;;;;;;;21.17;11.35;;;;;;;18.71;58.46;101021.31;5091975;28;20215;-61
2023/09/28 01:55:17;;;;;;;18.83;11.27;;;;;;;18.71;58.26;101012.63;5081133;28;20409;-62
2023/09/28 01:57:46;;;;;;;17.63;12.00;;;;;;;18.71;57.89;101015.25;5093834;28;20236;-62
2023/09/28 02:00:14;;;;;;;17.70;11.10;;;;;;;18.68;57.94;101010.06;5081249;28;20235;-61
2023/09/28 02:02:46;;;;;;;15.32;10.77;;;;;;;18.67;57.76;101019.66;5099174;28;20222;-62
2023/09/28 02:05:17;;;;;;;16.10;11.38;;;;;;;18.64;58.04;101019.75;5090516;28;20273;-61
2023/09/28 02:07:45;;;;;;;16.27;11.10;;;;;;;18.63;58.12;101018.06;5094269;28;20250;-63
2023/09/28 02:10:14;;;;;;;15.98;11.20;;;;;;;18.63;58.14;101015.44;5087263;28;20215;-62
2023/09/28 02:12:43;;;;;;;17.92;11.55;;;;;;;18.61;58.20;101019.84;5088317;28;20212;-62
2023/09/28 02:15:15;;;;;;;19.20;11.43;;;;;;;18.59;58.27;101016.41;5091604;28;20296;-62
2023/09/28 02:17:43;;;;;;;17.35;10.80;;;;;;;18.57;58.54;101013.84;5088630;28;20781;-61
2023/09/28 02:20:15;;;;;;;15.63;10.77;;;;;;;18.54;58.60;101013.09;5088970;28;20753;-63
2023/09/28 02:22:43;;;;;;;15.43;11.10;;;;;;;18.51;58.72;101023.59;5086130;28;20574;-62
2023/09/28 02:25:14;;;;;;;17.35;12.13;;;;;;;18.50;58.87;101022.75;5081733;28;20227;-64
2023/09/28 02:27:42;;;;;;;16.83;11.18;;;;;;;18.47;59.09;101024.59;5091873;28;20640;-62
2023/09/28 02:30:14;;;;;;;18.33;11.95;;;;;;;18.45;59.20;101023.81;5086585;28;20656;-65
2023/09/28 02:32:43;;;;;;;16.45;11.82;;;;;;;18.44;59.16;101019.47;5090817;28;20303;-62
2023/09/28 02:35:14;;;;;;;17.35;12.38;;;;;;;18.39;59.21;101011.78;5090517;28;20651;-63
2023/09/28 02:37:43;;;;;;;20.52;13.30;;;;;;;18.35;59.48;101004.94;5088647;28;20292;-61
2023/09/28 02:40:12;;;;;;;17.02;12.25;;;;;;;18.31;59.37;101006.78;5090655;28;20539;-62
2023/09/28 02:42:39;;;;;;;18.27;12.45;;;;;;;18.25;59.67;101004.31;5091646;28;20578;-63
2023/09/28 02:45:11;;;;;;;19.20;12.40;;;;;;;18.21;59.90;101005.31;5093313;28;20197;-61
2023/09/28 02:47:43;;;;;;;21.63;12.60;;;;;;;18.15;60.22;101002.00;5083035;28;20212;-62
2023/09/28 02:50:11;;;;;;;17.00;12.00;;;;;;;18.12;60.46;101012.56;5082271;28;20669;-63
2023/09/28 02:52:42;;;;;;;19.27;12.43;;;;;;;18.06;60.59;101013.56;5088294;28;20208;-62
2023/09/28 02:55:11;;;;;;;15.27;12.57;;;;;;;18.03;60.80;101013.63;5092166;28;20192;-62
2023/09/28 02:57:40;;;;;;;19.65;12.93;;;;;;;17.97;61.02;101013.78;5091271;28;20292;-63
2023/09/28 03:00:17;;;;;;;25.33;12.45;;;;;;;17.92;61.37;101013.91;5090668;28;20585;-63
2023/09/28 03:02:47;;;;;;;19.15;11.95;;;;;;;17.90;61.22;101013.13;5089246;28;20612;-64
2023/09/28 03:05:16;;;;;;;16.05;11.25;;;;;;;17.86;61.35;101011.50;5092161;28;20639;-64
2023/09/28 03:07:45;;;;;;;16.90;11.25;;;;;;;17.79;61.54;101009.94;5089985;28;20207;-62
2023/09/28 03:10:13;;;;;;;16.80;11.98;;;;;;;17.75;61.74;101011.78;5086237;28;20196;-61
2023/09/28 03:12:41;;;;;;;18.27;11.23;;;;;;;17.73;61.99;101012.66;5088974;28;20209;-62
2023/09/28 03:15:10;;;;;;;16.30;10.80;;;;;;;17.68;61.95;101010.19;5089168;28;20273;-63
2023/09/28 03:17:38;;;;;;;14.85;10.75;;;;;;;17.59;62.30;100994.75;5088994;28;20212;-63
2023/09/28 03:20:10;;;;;;;18.85;11.40;;;;;;;17.59;62.30;101011.25;5091662;28;20604;-63
2023/09/28 03:22:38;;;;;;;15.88;10.45;;;;;;;17.57;62.54;101017.41;5081601;28;20205;-62
2023/09/28 03:25:10;;;;;;;16.20;10.65;;;;;;;17.49;62.90;101014.13;5090494;28;20200;-61
2023/09/28 03:27:38;;;;;;;13.85;10.57;;;;;;;17.41;63.05;101005.63;5088930;28;20209;-62
2023/09/28 03:30:06;;;;;;;16.73;10.43;;;;;;;17.32;63.34;100998.91;5085818;28;20234;-60
2023/09/28 03:32:34;;;;;;;17.05;11.00;;;;;;;17.27;63.58;101013.78;5090098;28;20591;-62
2023/09/28 03:35:03;;;;;;;13.25;10.38;;;;;;;17.23;63.70;100996.50;5091853;28;20208;-63
2023/09/28 03:37:32;;;;;;;15.75;11.10;;;;;;;17.18;63.85;100996.63;5089532;28;20230;-62
2023/09/28 03:40:09;;;;;;;20.45;11.10;;;;;;;17.17;63.90;101009.69;5090131;28;20201;-63
2023/09/28 03:42:38;;;;;;;16.88;10.95;;;;;;;17.15;64.00;101007.13;5089945;28;20628;-61
2023/09/28 03:45:09;;;;;;;12.88;10.95;;;;;;;17.12;64.23;101009.78;5089512;28;20208;-63
2023/09/28 03:47:37;;;;;;;17.45;11.43;;;;;;;17.10;64.29;101014.19;5082970;28;20287;-62
2023/09/28 03:50:08;;;;;;;16.35;10.98;;;;;;;17.08;64.48;101008.16;5080917;28;20558;-63
2023/09/28 03:52:38;;;;;;;15.65;11.15;;;;;;;17.08;64.48;101008.16;5088309;28;20209;-62
2023/09/28 03:55:10;;;;;;;14.25;10.82;;;;;;;17.04;64.51;101003.91;5090243;28;20213;-62
2023/09/28 03:57:38;;;;;;;14.60;11.32;;;;;;;17.01;64.67;101004.84;5090465;28;20605;-63
2023/09/28 04:00:08;;;;;;;15.80;10.35;;;;;;;17.00;64.70;101008.31;5091867;28;20228;-61
2023/09/28 04:02:36;;;;;;;20.08;10.95;;;;;;;16.98;64.84;101001.47;5087252;28;20298;-61
2023/09/28 04:05:06;;;;;;;17.70;11.30;;;;;;;16.95;65.00;100998.91;5091059;28;20303;-63
2023/09/28 04:07:34;;;;;;;18.90;11.70;;;;;;;16.94;65.09;100999.78;5090881;28;20204;-63
2023/09/28 04:10:04;;;;;;;15.65;10.82;;;;;;;16.88;65.02;100985.19;5084918;28;20208;-63
2023/09/28 04:12:32;;;;;;;20.58;12.73;;;;;;;16.85;65.38;100996.50;5096465;28;20602;-63
2023/09/28 04:15:01;;;;;;;17.25;10.73;;;;;;;16.82;65.44;100996.56;5089057;28;20228;-61
2023/09/28 04:17:30;;;;;;;18.38;11.48;;;;;;;16.77;65.52;100995.81;5084467;28;20208;-62
2023/09/28 04:19:59;;;;;;;13.80;10.63;;;;;;;16.78;65.58;101005.34;5089299;28;20204;-62
2023/09/28 04:22:27;;;;;;;15.95;11.55;;;;;;;16.76;65.56;101003.69;5080215;28;20236;-63
2023/09/28 04:24:56;;;;;;;16.50;12.00;;;;;;;16.83;65.59;101002.66;5085158;28;20210;-62
2023/09/28 04:27:25;;;;;;;19.33;11.60;;;;;;;16.90;65.50;101004.25;5082634;28;20197;-63
2023/09/28 04:29:54;;;;;;;16.65;11.30;;;;;;;16.99;65.12;101001.41;5089573;28;20258;-63
2023/09/28 04:32:22;;;;;;;19.42;11.73;;;;;;;17.06;64.85;101004.75;5090500;28;20207;-63
2023/09/28 04:34:51;;;;;;;15.27;11.07;;;;;;;17.13;64.40;100998.50;5083322;28;20687;-63
2023/09/28 04:37:23;;;;;;;16.17;11.02;;;;;;;17.18;64.45;101007.03;5090200;28;20200;-62
2023/09/28 04:39:52;;;;;;;21.23;11.65;;;;;;;17.20;64.12;101000.06;5087807;28;20252;-62
2023/09/28 04:42:20;;;;;;;20.92;12.00;;;;;;;17.20;63.80;100994.84;5089873;28;20216;-62
2023/09/28 04:44:50;;;;;;;19.10;11.45;;;;;;;17.24;63.78;100991.28;5088193;28;20204;-62
2023/09/28 04:47:18;;;;;;;13.82;11.40;;;;;;;17.24;63.75;101008.66;5083484;28;20224;-63
2023/09/28 04:49:48;;;;;;;19.42;11.27;;;;;;;17.25;63.97;101005.16;5088692;28;20811;-62
2023/09/28 04:52:17;;;;;;;18.23;11.60;;;;;;;17.26;63.65;101002.50;5087371;28;20599;-63
2023/09/28 04:54:45;;;;;;;16.58;11.15;;;;;;;17.28;63.62;101010.31;5084082;28;20227;-62
2023/09/28 04:57:13;;;;;;;14.25;10.38;;;;;;;17.28;63.68;101010.31;5083325;28;20196;-62
2023/09/28 04:59:41;;;;;;;18.13;11.45;;;;;;;17.29;63.30;101005.03;5086602;28;20266;-61
2023/09/28 05:02:11;;;;;;;15.30;10.55;;;;;;;17.28;63.59;101005.94;5087527;28;20242;-63
2023/09/28 05:04:39;;;;;;;13.18;10.70;;;;;;;17.28;63.56;101011.16;5082414;28;20822;-62
2023/09/28 05:07:07;;;;;;;16.23;11.25;;;;;;;17.29;63.35;101005.03;5083722;28;20608;-63
2023/09/28 05:09:38;;;;;;;17.77;11.60;;;;;;;17.26;63.46;101007.72;5088778;28;20678;-62
2023/09/28 05:12:06;;;;;;;18.83;11.50;;;;;;;17.26;63.55;101019.88;5084583;28;20205;-63
2023/09/28 05:14:35;;;;;;;15.27;11.88;;;;;;;17.23;63.39;101013.03;5083089;28;20277;-62
2023/09/28 05:17:03;;;;;;;15.45;11.63;;;;;;;17.24;63.56;101016.47;5076728;28;20220;-63
2023/09/28 05:19:32;;;;;;;17.25;11.55;;;;;;;17.20;63.62;101012.25;5086734;28;20204;-64
2023/09/28 05:22:00;;;;;;;16.92;10.50;;;;;;;17.18;63.95;101016.63;5080787;28;20671;-65
2023/09/28 05:24:28;;;;;;;21.48;12.32;;;;;;;17.15;64.21;101014.94;5087752;28;20817;-63
2023/09/28 05:26:57;;;;;;;18.67;12.02;;;;;;;17.17;64.09;101013.16;5082256;28;20278;-64
2023/09/28 05:29:27;;;;;;;23.95;11.77;;;;;;;17.17;64.14;101015.75;5092887;28;20224;-64
2023/09/28 05:31:55;;;;;;;18.40;11.98;;;;;;;17.17;64.14;101012.31;5091259;28;20209;-62
2023/09/28 05:34:23;;;;;;;19.48;12.82;;;;;;;17.14;63.97;101015.81;5090125;28;20615;-62
2023/09/28 05:36:53;;;;;;;17.02;12.05;;;;;;;17.11;64.32;101018.50;5089018;28;20240;-66
2023/09/28 05:39:21;;;;;;;14.85;12.25;;;;;;;17.11;64.51;101019.34;5083132;28;20228;-63
2023/09/28 05:41:49;;;;;;;19.58;13.20;;;;;;;17.11;64.25;101010.69;5083657;28;20204;-63
2023/09/28 05:44:17;;;;;;;15.25;12.52;;;;;;;17.04;64.48;101009.09;5084452;28;20719;-63
2023/09/28 05:46:48;;;;;;;22.73;13.27;;;;;;;17.04;64.66;101009.09;5087739;28;20885;-62
2023/09/28 05:49:17;;;;;;;19.75;12.85;;;;;;;17.04;64.77;101011.72;5093445;28;20627;-63
2023/09/28 05:51:45;;;;;;;21.65;13.88;;;;;;;17.01;64.76;101004.84;5085668;28;20643;-63
2023/09/28 05:54:14;;;;;;;23.17;13.57;;;;;;;17.02;64.69;101013.50;5087774;28;20231;-67
2023/09/28 05:56:44;;;;;;;18.63;12.85;;;;;;;17.01;64.72;101003.97;5080607;28;20211;-67
2023/09/28 05:59:12;;;;;;;16.67;12.48;;;;;;;17.10;64.77;101014.19;5079149;28;20769;-66
2023/09/28 06:01:42;;;;;;;20.10;13.20;;;;;;;17.18;64.16;101014.00;5081328;28;20738;-67
2023/09/28 06:04:11;;;;;;;16.63;12.55;;;;;;;17.22;64.02;101010.44;5082377;28;21179;-67
2023/09/28 06:06:40;;;;;;;22.52;12.98;;;;;;;17.28;63.70;101021.56;5082854;28;20331;-68
2023/09/28 06:09:08;;;;;;;17.08;12.57;;;;;;;17.33;63.26;101011.03;5089854;28;20197;-64
2023/09/28 06:11:37;;;;;;;15.73;11.50;;;;;;;17.36;63.00;101011.81;5086490;28;20682;-66
2023/09/28 06:14:05;;;;;;;18.77;12.23;;;;;;;17.37;62.88;101008.31;5085402;28;20233;-68
2023/09/28 06:16:36;;;;;;;19.08;13.02;;;;;;;17.43;62.75;101012.53;5086953;28;20192;-68
2023/09/28 06:19:05;;;;;;;20.38;12.90;;;;;;;17.45;62.50;101017.69;5084321;28;20318;-68
2023/09/28 06:21:34;;;;;;;16.85;11.73;;;;;;;17.45;62.39;101015.09;5083431;28;20215;-68
2023/09/28 06:24:03;;;;;;;17.67;12.57;;;;;;;17.44;62.37;101011.63;5086503;28;20266;-67
2023/09/28 06:26:31;;;;;;;14.55;11.35;;;;;;;17.47;62.32;101014.16;5086958;28;20193;-68
2023/09/28 06:29:11;;;;;;;17.67;12.73;;;;;;;17.53;62.10;101011.41;5081102;28;20192;-70
2023/09/28 06:31:41;;;;;;;15.30;12.30;;;;;;;17.58;61.98;101013.91;5086829;28;20954;-67
2023/09/28 06:34:09;;;;;;;18.52;12.35;;;;;;;17.63;62.16;101014.63;5084962;28;20291;-66
2023/09/28 06:36:37;;;;;;;22.35;11.05;;;;;;;17.75;61.64;101013.50;5077895;28;20572;-65
2023/09/28 06:39:10;;;;;;;18.38;11.50;;;;;;;17.93;61.51;101007.84;5080857;28;20239;-68
2023/09/28 06:41:40;;;;;;;20.92;12.07;;;;;;;18.16;60.44;101006.34;5089137;28;20620;-64
2023/09/28 06:44:09;;;;;;;18.42;11.68;;;;;;;18.38;59.68;101006.59;5092078;28;20212;-64
2023/09/28 06:46:39;;;;;;;17.90;10.95;;;;;;;18.59;58.72;101000.75;5090162;28;20196;-65
2023/09/28 06:49:08;;;;;;;14.73;11.50;;;;;;;18.75;57.76;100998.59;5093399;28;20608;-68
2023/09/28 06:51:37;;;;;;;21.70;11.45;;;;;;;18.95;57.56;101003.19;5085172;28;20196;-69
2023/09/28 06:54:05;;;;;;;14.27;10.13;;;;;;;19.16;57.08;101007.75;5092532;28;20580;-68
2023/09/28 06:56:38;;;;;;;15.75;10.48;;;;;;;19.36;56.08;101006.25;5089799;28;20643;-66
2023/09/28 06:59:07;;;;;;;21.25;11.10;;;;;;;19.55;55.35;101005.59;5091033;28;20196;-68
2023/09/28 07:01:38;;;;;;;17.38;10.02;;;;;;;19.81;55.01;101009.13;5085156;28;20208;-67
2023/09/28 07:04:08;;;;;;;13.32;10.43;;;;;;;20.00;54.29;101010.19;5085664;28;20207;-68
2023/09/28 07:06:36;;;;;;;13.10;10.00;;;;;;;20.28;53.53;101017.88;5092749;28;20197;-72
2023/09/28 07:09:05;;;;;;;17.85;10.07;;;;;;;20.62;52.78;101010.59;5081893;28;22782;-69
2023/09/28 07:11:34;;;;;;;17.65;10.05;;;;;;;21.08;51.73;101009.66;5088992;28;20662;-68
2023/09/28 07:14:02;;;;;;;19.52;9.63;;;;;;;21.61;50.13;101009.25;5081942;28;20261;-67
2023/09/28 07:16:31;;;;;;;16.77;9.95;;;;;;;22.11;48.27;100998.38;5090563;28;20683;-67
2023/09/28 07:19:03;;;;;;;18.60;10.40;;;;;;;22.79;46.93;101005.81;5086985;28;20219;-68
2023/09/28 07:21:33;;;;;;;12.77;9.40;;;;;;;23.47;44.59;100999.03;5081109;28;20313;-69
2023/09/28 07:24:01;;;;;;;12.63;9.45;;;;;;;24.32;43.83;101004.28;5085769;28;20754;-66
2023/09/28 07:26:46;;;;;;;12.07;9.10;;;;;;;25.53;40.64;100989.63;5091468;28;20205;-67
2023/09/28 07:29:18;;;;;;;20.27;9.85;;;;;;;26.50;37.63;100981.97;5080396;28;20228;-66
2023/09/28 07:31:46;;;;;;;14.25;10.10;;;;;;;27.38;36.30;100979.81;5086181;28;20201;-67
2023/09/28 07:34:14;;;;;;;17.83;9.98;;;;;;;28.22;34.29;100986.44;5084387;28;20216;-68
2023/09/28 07:36:45;;;;;;;11.88;9.20;;;;;;;29.07;32.49;100983.91;5081986;28;20271;-67
2023/09/28 07:39:13;;;;;;;15.43;10.15;;;;;;;30.04;31.27;100980.88;5076105;28;20711;-67
2023/09/28 07:41:41;;;;;;;13.48;9.38;;;;;;;30.95;30.03;100979.00;5064791;28;20279;-66
2023/09/28 07:44:09;;;;;;;12.57;9.27;;;;;;;32.18;28.02;100980.97;5067504;28;20194;-69
2023/09/28 07:46:38;;;;;;;14.48;9.13;;;;;;;33.22;26.62;100985.94;5074107;28;20240;-69
2023/09/28 07:49:07;;;;;;;10.70;9.00;;;;;;;34.14;25.23;100981.69;5069074;28;20571;-71
2023/09/28 07:51:35;;;;;;;13.80;9.55;;;;;;;34.92;24.04;100978.53;5058718;28;20699;-73
2023/09/28 07:54:04;;;;;;;13.25;9.27;;;;;;;35.26;23.77;100981.38;5064575;28;20205;-59
2023/09/28 07:56:33;;;;;;;13.18;10.05;;;;;;;34.72;23.97;100977.81;5070816;28;20217;-67
2023/09/28 07:59:01;;;;;;;12.23;9.05;;;;;;;33.76;24.64;100977.28;5071807;28;20209;-64
2023/09/28 08:01:29;;;;;;;16.60;9.13;;;;;;;33.28;26.10;100983.53;5072166;28;20209;-68
2023/09/28 08:03:57;;;;;;;15.88;9.70;;;;;;;33.16;26.01;100980.19;5068312;28;20207;-68
2023/09/28 08:06:25;;;;;;;13.13;8.98;;;;;;;33.06;26.17;100978.47;5073145;28;20569;-69
2023/09/28 08:08:58;;;;;;;16.13;9.27;;;;;;;32.96;26.24;100978.50;5073961;28;20197;-67
2023/09/28 08:11:27;;;;;;;13.43;8.80;;;;;;;32.39;26.52;100975.53;5073455;28;20244;-68
2023/09/28 08:13:55;;;;;;;16.48;9.05;;;;;;;31.24;28.13;100976.56;5071936;28;20259;-68
2023/09/28 08:16:24;;;;;;;11.43;9.18;;;;;;;30.13;29.05;100973.16;5072382;28;20995;-68
2023/09/28 08:18:52;;;;;;;17.92;9.38;;;;;;;29.18;30.95;100977.78;5072410;28;20217;-68
2023/09/28 08:21:24;;;;;;;14.90;8.60;;;;;;;28.59;32.61;100976.72;5070189;28;20201;-68
2023/09/28 08:23:52;;;;;;;10.75;8.32;;;;;;;28.08;33.36;100976.81;5070475;28;20208;-67
2023/09/28 08:26:20;;;;;;;14.63;9.75;;;;;;;27.85;34.61;100970.47;5070951;28;20204;-75
2023/09/28 08:28:50;;;;;;;16.77;9.73;;;;;;;27.69;34.73;100973.31;5080842;28;20312;-73
2023/09/28 08:31:19;;;;;;;15.32;9.38;;;;;;;27.52;35.16;100978.91;5067476;28;20623;-73
2023/09/28 08:33:48;;;;;;;12.95;9.07;;;;;;;27.21;35.34;100977.44;5070094;28;20206;-73
2023/09/28 08:36:16;;;;;;;10.82;8.73;;;;;;;26.78;36.08;100969.66;5067772;28;20275;-73
2023/09/28 08:38:44;;;;;;;16.65;9.65;;;;;;;26.37;36.85;100973.13;5079327;28;20244;-73
2023/09/28 08:41:16;;;;;;;14.40;9.05;;;;;;;26.07;37.67;100970.59;5092435;28;20266;-74
2023/09/28 08:43:47;;;;;;;20.27;9.90;;;;;;;25.76;38.79;100964.50;5085320;28;20212;-72
2023/09/28 08:46:18;;;;;;;16.40;9.73;;;;;;;25.51;38.96;100969.53;5090206;28;20196;-69
2023/09/28 08:49:02;;;;;;;16.23;9.68;;;;;;;25.36;39.78;100973.94;5088586;28;20204;-62
2023/09/28 08:51:31;;;;;;;11.00;8.68;;;;;;;25.23;40.42;100971.16;5092225;28;20222;-63
2023/09/28 08:54:03;;;;;;;14.65;9.32;;;;;;;25.20;40.39;100970.50;5091707;28;20556;-63
2023/09/28 08:56:32;;;;;;;19.60;9.40;;;;;;;25.18;40.82;100962.66;5076868;28;20676;-62
2023/09/28 08:59:02;;;;;;;13.82;9.25;;;;;;;25.22;40.90;100968.59;5084750;28;20200;-64
2023/09/28 09:01:33;;;;;;;14.52;8.75;;;;;;;25.22;40.71;100968.59;5088708;28;20212;-64
2023/09/28 09:04:01;;;;;;;15.10;8.63;;;;;;;25.18;40.76;100969.72;5090349;28;20229;-69
2023/09/28 09:06:31;;;;;;;15.85;8.82;;;;;;;25.15;41.20;100964.63;5092074;28;20204;-69
2023/09/28 09:09:01;;;;;;;15.85;8.68;;;;;;;25.13;40.94;100963.88;5083373;28;20205;-69
2023/09/28 09:11:31;;;;;;;16.77;8.35;;;;;;;25.13;40.55;100959.44;5094036;28;20662;-67
2023/09/28 09:13:59;;;;;;;13.65;8.40;;;;;;;25.20;40.82;100959.94;5084867;28;20207;-67
2023/09/28 09:16:29;;;;;;;14.32;8.68;;;;;;;25.26;41.13;100949.88;5086693;28;20717;-68
2023/09/28 09:18:59;;;;;;;14.20;8.98;;;;;;;25.21;41.38;100953.72;5093835;28;20225;-70
2023/09/28 09:21:40;;;;;;;9.50;8.02;;;;;;;25.02;41.53;100954.75;5109159;28;20287;-67
2023/09/28 09:24:11;;;;;;;16.25;8.52;;;;;;;24.92;41.52;100960.63;5095817;28;20606;-68
2023/09/28 09:26:40;;;;;;;15.95;8.20;;;;;;;24.75;42.13;100962.44;5088451;28;20663;-62
2023/09/28 09:29:09;;;;;;;14.80;8.35;;;;;;;24.54;42.19;100955.72;5100315;28;20197;-62
2023/09/28 09:31:39;;;;;;;12.88;7.70;;;;;;;24.35;42.83;100961.13;5097182;28;20214;-63
2023/09/28 09:34:12;;;;;;;13.88;8.40;;;;;;;24.17;43.17;100959.50;5091573;28;20224;-64
2023/09/28 09:36:41;;;;;;;10.52;8.68;;;;;;;24.09;43.56;100960.75;5094330;28;20678;-63
2023/09/28 09:39:21;;;;;;;14.93;8.85;;;;;;;24.10;43.70;100961.59;5093854;28;20224;-65
2023/09/28 09:41:50;;;;;;;14.02;7.97;;;;;;;24.11;43.74;100953.59;5095768;28;20208;-66
2023/09/28 09:44:18;;;;;;;13.00;8.18;;;;;;;24.25;44.07;100959.94;5089389;28;20292;-64
2023/09/28 09:46:48;;;;;;;14.73;8.00;;;;;;;24.44;43.58;100955.38;5100680;28;20203;-73
2023/09/28 09:49:19;;;;;;;12.38;7.97;;;;;;;24.66;43.05;100959.47;5088169;28;20200;-70
2023/09/28 09:51:48;;;;;;;11.38;8.45;;;;;;;24.87;42.63;100954.78;5083002;28;20648;-71
2023/09/28 09:54:18;;;;;;;11.77;7.45;;;;;;;25.02;42.05;100954.75;5084386;28;20224;-73
2023/09/28 09:56:47;;;;;;;12.13;7.32;;;;;;;25.16;41.71;100954.00;5087744;28;20575;-64
2023/09/28 09:59:16;;;;;;;11.70;7.55;;;;;;;25.33;41.05;100955.63;5088438;28;20196;-63
2023/09/28 10:01:48;;;;;;;9.30;6.50;;;;;;;25.48;40.82;100962.66;5082822;28;20213;-68
2023/09/28 10:04:19;;;;;;;13.10;6.70;;;;;;;25.64;40.79;100945.91;5091401;28;20213;-68
2023/09/28 10:06:50;;;;;;;9.30;6.75;;;;;;;25.78;40.51;100944.16;5088631;28;20209;-67
2023/09/28 10:09:21;;;;;;;10.82;6.63;;;;;;;25.93;40.10;100939.75;5081162;28;20200;-67
2023/09/28 10:11:51;;;;;;;8.48;5.90;;;;;;;26.02;39.47;100933.88;5085905;28;20201;-67
2023/09/28 10:14:21;;;;;;;10.68;6.85;;;;;;;26.14;39.22;100928.78;5096095;28;20673;-67
2023/09/28 10:16:53;;;;;;;9.55;6.43;;;;;;;26.24;38.93;100937.81;5091167;28;20228;-68
2023/09/28 10:19:25;;;;;;;9.38;6.53;;;;;;;26.29;38.73;100930.47;5094594;28;20232;-68
2023/09/28 10:21:55;;;;;;;11.52;6.50;;;;;;;26.34;38.21;100930.19;5091139;28;20682;-67
2023/09/28 10:24:30;;;;;;;8.35;6.50;;;;;;;26.37;38.06;100932.63;5091220;28;20201;-68
2023/09/28 10:27:08;;;;;;;13.23;6.45;;;;;;;26.51;37.88;100932.59;5085223;28;20203;-67
2023/09/28 10:29:36;;;;;;;10.85;5.75;;;;;;;26.57;38.03;100929.56;5096503;28;20661;-67
2023/09/28 10:32:15;;;;;;;14.27;6.55;;;;;;;26.63;37.87;100933.63;5091748;28;20197;-68
2023/09/28 10:34:46;;;;;;;12.85;6.22;;;;;;;26.59;37.41;100932.97;5092829;28;20254;-68
2023/09/28 10:37:22;;;;;;;11.45;6.13;;;;;;;26.53;37.17;100930.72;5091144;28;20249;-68
2023/09/28 10:39:51;;;;;;;11.40;5.82;;;;;;;26.52;37.83;100930.84;5087837;28;20289;-67
2023/09/28 10:42:21;;;;;;;11.38;5.85;;;;;;;26.56;38.11;100924.41;5093818;28;20220;-68
2023/09/28 10:44:51;;;;;;;11.23;6.43;;;;;;;26.67;38.24;100929.84;5086333;28;20208;-67
2023/09/28 10:47:20;;;;;;;10.43;5.88;;;;;;;26.76;37.85;100923.09;5091410;28;20662;-68
2023/09/28 10:49:59;;;;;;;13.70;5.68;;;;;;;26.83;37.14;100927.88;5098772;28;20697;-68
2023/09/28 10:52:29;;;;;;;8.35;5.63;;;;;;;26.87;36.40;100926.72;5091214;28;20286;-67
2023/09/28 10:54:58;;;;;;;10.32;5.85;;;;;;;26.89;36.33;100924.84;5089980;28;20197;-69
2023/09/28 10:57:30;;;;;;;11.38;6.28;;;;;;;26.89;35.78;100922.19;5082144;28;20598;-68
2023/09/28 11:00:09;;;;;;;10.55;5.00;;;;;;;26.90;36.35;100920.41;5096208;28;20211;-69
2023/09/28 11:02:37;;;;;;;8.45;5.50;;;;;;;26.97;36.10;100921.69;5087445;28;20200;-67
2023/09/28 11:05:09;;;;;;;10.63;5.05;;;;;;;27.03;35.85;100917.78;5090917;28;20232;-68
2023/09/28 11:07:38;;;;;;;6.68;5.60;;;;;;;27.06;35.74;100918.41;5089858;28;20618;-68
2023/09/28 11:10:08;;;;;;;10.85;5.00;;;;;;;27.09;35.49;100910.28;5094949;28;20228;-68
2023/09/28 11:12:37;;;;;;;8.18;5.70;;;;;;;27.19;36.04;100907.91;5096442;28;20211;-68
2023/09/28 11:15:08;;;;;;;8.57;5.25;;;;;;;27.33;35.70;100910.47;5092408;28;20205;-68
2023/09/28 11:17:37;;;;;;;10.10;5.75;;;;;;;27.46;35.04;100902.53;5090542;28;20271;-67
2023/09/28 11:20:11;;;;;;;9.05;5.55;;;;;;;27.51;34.71;100897.78;5094079;28;20204;-68
2023/09/28 11:22:39;;;;;;;6.97;4.93;;;;;;;27.53;34.80;100892.38;5091436;28;20208;-69